Hlavní strana
METAR-TAF:

METAR-TAF

Letiště :

Jacksonville, Severní Karolína, Spojené státy americké

zeměpisná šířka: 34-42-21N, zeměpisná délka: 077-26-27W, výška: 7 m

Aktuální stav počasí

Zpráva byla vytvořena před 43 minutami, v 15:56 UTC
Severozápadní vítr 16 kt s nárazy do 29 kt
Teplota 9°C
Vlhkost vzduchu 43%
Tlak 1015 hPa
Viditelnost: 16.1 km
Jasno

METAR: KNCA 271556Z 31016G29KT 10SM CLR 09/M03 A2996 RMK AO2 PK WND 32029/1552 SLP147 T00941033

Čas: 11:39 (16:39 UTC)

Předpověď počasí

Předpověď platná od 27 v 15 UTC do 28 v 15 UTC
Západoseverozápadní vítr 15 kt s nárazy do 25 kt
Viditelnost 10 km a více
Jasno
Změna
od 27 v 18 UTC do 27 v 20 UTC
Západoseverozápadní vítr 15 kt
Viditelnost 10 km a více
Jasno
Od 28 v 0100 UTC
vítr z různých směrů 5 kt
Viditelnost 10 km a více
Jasno

TAF: KNCA 2715/2815 30015G25KT 9999 SKC QNH2990INS BECMG 2718/2720 30015KT 9999 SKC QNH2992INS FM280100 VRB05KT 9999 SKC QNH2995INS T13/2721Z T02/2812Z

Stav a předpovědi počasí z více než 4 000 letišť (zprávy METAR a TAF).

Červené a žluté tečky na mapě představují dostupné meteorologické stanice.

Když kurzor umístíte na tečku, zobrazí se název stanice.

Pak kliknutím zobrazíte stav a předpověď počasí.

Chcete-li změnit mapu, kliknutím na zelené tlačítko se znaménkem +mapu přiblížíte, kliknutím na zelené tlačítko se znaménkem – mapu oddálíte a kliknutím na zelené šipky přejdete na sousední mapy.


METAR-TAF: